sensor_id;sensor_type;location;lat;lon;timestamp;P1;durP1;ratioP1;P2;durP2;ratioP2
24631;SDS011;59977;48.782;9.190;2022-11-21T18:12:52;9.73;;;3.33;;
24631;SDS011;59977;48.782;9.190;2022-11-21T18:15:17;10.25;;;2.90;;
24631;SDS011;59977;48.782;9.190;2022-11-21T18:17:43;9.50;;;3.05;;
24631;SDS011;59977;48.782;9.190;2022-11-21T18:20:09;10.77;;;3.63;;
24631;SDS011;59977;48.782;9.190;2022-11-21T18:22:34;14.25;;;3.30;;
24631;SDS011;59977;48.782;9.190;2022-11-21T18:25:00;11.05;;;3.47;;
24631;SDS011;59977;48.782;9.190;2022-11-21T18:27:26;13.02;;;3.80;;
24631;SDS011;59977;48.782;9.190;2022-11-21T18:29:51;12.18;;;3.63;;
24631;SDS011;59977;48.782;9.190;2022-11-21T18:32:17;9.30;;;3.40;;
24631;SDS011;59977;48.782;9.190;2022-11-21T18:34:42;10.43;;;3.45;;
24631;SDS011;59977;48.782;9.190;2022-11-21T18:37:08;12.55;;;3.22;;
24631;SDS011;59977;48.782;9.190;2022-11-21T18:39:34;17.27;;;3.50;;
24631;SDS011;59977;48.782;9.190;2022-11-21T18:42:15;9.10;;;3.20;;
24631;SDS011;59977;48.782;9.190;2022-11-21T18:44:41;13.60;;;3.10;;
24631;SDS011;59977;48.782;9.190;2022-11-21T18:47:06;8.93;;;3.25;;
24631;SDS011;59977;48.782;9.190;2022-11-21T18:56:16;9.45;;;3.08;;
24631;SDS011;59977;48.782;9.190;2022-11-21T18:58:43;16.40;;;4.80;;
24631;SDS011;59977;48.782;9.190;2022-11-21T19:01:09;15.93;;;5.32;;
24631;SDS011;59977;48.782;9.190;2022-11-21T19:03:56;17.05;;;5.50;;
24631;SDS011;59977;48.782;9.190;2022-11-21T19:06:22;13.73;;;4.88;;
24631;SDS011;59977;48.782;9.190;2022-11-21T19:08:50;17.15;;;5.32;;
24631;SDS011;59977;48.782;9.190;2022-11-21T19:14:41;16.13;;;4.53;;
24631;SDS011;59977;48.782;9.190;2022-11-21T19:17:07;12.40;;;4.25;;
24631;SDS011;59977;48.782;9.190;2022-11-21T19:19:33;14.02;;;3.92;;
24631;SDS011;59977;48.782;9.190;2022-11-21T19:21:58;16.63;;;4.20;;
24631;SDS011;59977;48.782;9.190;2022-11-21T19:24:25;10.55;;;3.38;;
24631;SDS011;59977;48.782;9.190;2022-11-21T19:26:50;12.57;;;3.72;;
24631;SDS011;59977;48.782;9.190;2022-11-21T19:29:16;17.10;;;4.15;;
24631;SDS011;59977;48.782;9.190;2022-11-21T19:31:42;12.52;;;4.20;;
24631;SDS011;59977;48.782;9.190;2022-11-21T19:34:08;13.13;;;4.25;;
24631;SDS011;59977;48.782;9.190;2022-11-21T19:36:36;13.73;;;4.32;;
24631;SDS011;59977;48.782;9.190;2022-11-21T19:39:03;12.57;;;4.22;;
24631;SDS011;59977;48.782;9.190;2022-11-21T19:41:28;13.43;;;4.75;;
24631;SDS011;59977;48.782;9.190;2022-11-21T19:43:56;12.48;;;3.92;;
24631;SDS011;59977;48.782;9.190;2022-11-21T19:46:27;18.35;;;5.20;;
24631;SDS011;59977;48.782;9.190;2022-11-21T19:48:55;18.77;;;8.13;;
24631;SDS011;59977;48.782;9.190;2022-11-21T19:51:23;19.83;;;6.90;;
24631;SDS011;59977;48.782;9.190;2022-11-21T19:53:53;12.07;;;4.20;;
24631;SDS011;59977;48.782;9.190;2022-11-21T19:56:20;13.18;;;4.30;;
24631;SDS011;59977;48.782;9.190;2022-11-21T19:58:47;12.13;;;3.75;;
24631;SDS011;59977;48.782;9.190;2022-11-21T20:01:14;20.15;;;4.32;;
24631;SDS011;59977;48.782;9.190;2022-11-21T20:06:30;8.98;;;3.95;;
24631;SDS011;59977;48.782;9.190;2022-11-21T20:09:01;11.75;;;4.22;;
24631;SDS011;59977;48.782;9.190;2022-11-21T20:11:32;11.13;;;3.65;;
24631;SDS011;59977;48.782;9.190;2022-11-21T20:13:58;20.20;;;5.30;;
24631;SDS011;59977;48.782;9.190;2022-11-21T20:19:01;13.57;;;5.82;;
24631;SDS011;59977;48.782;9.190;2022-11-21T20:21:30;15.05;;;5.63;;
24631;SDS011;59977;48.782;9.190;2022-11-21T20:23:56;15.52;;;5.80;;
24631;SDS011;59977;48.782;9.190;2022-11-21T20:26:25;16.40;;;5.65;;
24631;SDS011;59977;48.782;9.190;2022-11-21T20:28:50;13.45;;;5.38;;
24631;SDS011;59977;48.782;9.190;2022-11-21T20:31:24;23.15;;;6.30;;
24631;SDS011;59977;48.782;9.190;2022-11-21T20:33:52;19.67;;;5.50;;
24631;SDS011;59977;48.782;9.190;2022-11-21T20:36:20;13.57;;;5.10;;
24631;SDS011;59977;48.782;9.190;2022-11-21T20:41:40;17.25;;;5.55;;
24631;SDS011;59977;48.782;9.190;2022-11-21T20:44:11;21.83;;;6.15;;
24631;SDS011;59977;48.782;9.190;2022-11-21T20:46:45;15.05;;;5.10;;
24631;SDS011;59977;48.782;9.190;2022-11-21T20:49:11;20.23;;;6.05;;
24631;SDS011;59977;48.782;9.190;2022-11-21T20:51:37;17.17;;;6.30;;
24631;SDS011;59977;48.782;9.190;2022-11-21T20:54:03;15.68;;;5.68;;
24631;SDS011;59977;48.782;9.190;2022-11-21T20:56:31;19.95;;;6.05;;
24631;SDS011;59977;48.782;9.190;2022-11-21T20:58:58;20.88;;;6.38;;
24631;SDS011;59977;48.782;9.190;2022-11-21T21:01:24;17.65;;;6.07;;
24631;SDS011;59977;48.782;9.190;2022-11-21T21:03:50;18.63;;;5.85;;
24631;SDS011;59977;48.782;9.190;2022-11-21T21:06:16;16.65;;;5.80;;
24631;SDS011;59977;48.782;9.190;2022-11-21T21:08:42;17.95;;;5.95;;
24631;SDS011;59977;48.782;9.190;2022-11-21T21:11:10;19.27;;;6.35;;
24631;SDS011;59977;48.782;9.190;2022-11-21T21:13:44;20.70;;;5.60;;
24631;SDS011;59977;48.782;9.190;2022-11-21T21:16:21;17.15;;;5.70;;
24631;SDS011;59977;48.782;9.190;2022-11-21T21:18:49;15.35;;;5.80;;
24631;SDS011;59977;48.782;9.190;2022-11-21T21:21:23;13.07;;;5.60;;
24631;SDS011;59977;48.782;9.190;2022-11-21T21:24:10;23.45;;;6.18;;
24631;SDS011;59977;48.782;9.190;2022-11-21T21:26:39;18.45;;;5.90;;
24631;SDS011;59977;48.782;9.190;2022-11-21T21:29:06;17.83;;;6.55;;
24631;SDS011;59977;48.782;9.190;2022-11-21T21:31:32;19.90;;;6.13;;
24631;SDS011;59977;48.782;9.190;2022-11-21T21:33:57;14.52;;;6.07;;
24631;SDS011;59977;48.782;9.190;2022-11-21T21:36:24;17.30;;;5.30;;
24631;SDS011;59977;48.782;9.190;2022-11-21T21:38:51;12.35;;;5.13;;
24631;SDS011;59977;48.782;9.190;2022-11-21T21:44:40;20.00;;;7.88;;
24631;SDS011;59977;48.782;9.190;2022-11-21T21:47:05;16.10;;;7.60;;
24631;SDS011;59977;48.782;9.190;2022-11-21T21:49:35;20.30;;;8.15;;
24631;SDS011;59977;48.782;9.190;2022-11-21T21:52:00;19.25;;;8.55;;
24631;SDS011;59977;48.782;9.190;2022-11-21T21:54:26;21.27;;;7.72;;
24631;SDS011;59977;48.782;9.190;2022-11-21T21:56:51;20.83;;;7.93;;
24631;SDS011;59977;48.782;9.190;2022-11-21T21:59:17;20.48;;;7.70;;
24631;SDS011;59977;48.782;9.190;2022-11-21T22:01:43;22.85;;;7.32;;
24631;SDS011;59977;48.782;9.190;2022-11-21T22:04:09;16.45;;;6.35;;
24631;SDS011;59977;48.782;9.190;2022-11-21T22:06:36;17.77;;;5.55;;
24631;SDS011;59977;48.782;9.190;2022-11-21T22:09:02;17.58;;;5.47;;
24631;SDS011;59977;48.782;9.190;2022-11-21T22:11:28;14.50;;;5.15;;
24631;SDS011;59977;48.782;9.190;2022-11-21T22:16:25;14.23;;;5.20;;
24631;SDS011;59977;48.782;9.190;2022-11-21T22:18:52;12.70;;;4.43;;
24631;SDS011;59977;48.782;9.190;2022-11-21T22:21:30;15.18;;;4.85;;
24631;SDS011;59977;48.782;9.190;2022-11-21T22:23:58;16.33;;;4.72;;
24631;SDS011;59977;48.782;9.190;2022-11-21T22:26:24;18.77;;;4.55;;
24631;SDS011;59977;48.782;9.190;2022-11-21T22:28:50;17.05;;;3.67;;
24631;SDS011;59977;48.782;9.190;2022-11-21T22:31:16;12.77;;;3.70;;
24631;SDS011;59977;48.782;9.190;2022-11-21T22:33:42;8.70;;;3.70;;
24631;SDS011;59977;48.782;9.190;2022-11-21T22:36:12;12.45;;;3.28;;
24631;SDS011;59977;48.782;9.190;2022-11-21T22:38:40;13.75;;;2.80;;
24631;SDS011;59977;48.782;9.190;2022-11-21T22:43:36;21.10;;;3.63;;
24631;SDS011;59977;48.782;9.190;2022-11-21T22:46:03;34.83;;;4.38;;
24631;SDS011;59977;48.782;9.190;2022-11-21T22:48:29;10.48;;;2.50;;
24631;SDS011;59977;48.782;9.190;2022-11-21T22:50:56;24.25;;;2.92;;
24631;SDS011;59977;48.782;9.190;2022-11-21T22:53:22;18.38;;;2.92;;
24631;SDS011;59977;48.782;9.190;2022-11-21T22:58:41;8.88;;;2.92;;
24631;SDS011;59977;48.782;9.190;2022-11-21T23:03:37;12.23;;;2.95;;
24631;SDS011;59977;48.782;9.190;2022-11-21T23:06:08;6.32;;;2.42;;
24631;SDS011;59977;48.782;9.190;2022-11-21T23:08:35;13.32;;;3.03;;
24631;SDS011;59977;48.782;9.190;2022-11-21T23:11:06;9.63;;;3.05;;
24631;SDS011;59977;48.782;9.190;2022-11-21T23:13:33;8.85;;;2.60;;
24631;SDS011;59977;48.782;9.190;2022-11-21T23:16:03;6.57;;;2.20;;
24631;SDS011;59977;48.782;9.190;2022-11-21T23:18:31;9.95;;;2.83;;
24631;SDS011;59977;48.782;9.190;2022-11-21T23:20:57;12.88;;;2.97;;
24631;SDS011;59977;48.782;9.190;2022-11-21T23:23:23;7.70;;;2.80;;
24631;SDS011;59977;48.782;9.190;2022-11-21T23:25:49;9.57;;;3.55;;
24631;SDS011;59977;48.782;9.190;2022-11-21T23:28:18;9.43;;;2.58;;
24631;SDS011;59977;48.782;9.190;2022-11-21T23:30:44;7.07;;;3.03;;
24631;SDS011;59977;48.782;9.190;2022-11-21T23:33:11;21.10;;;3.20;;
24631;SDS011;59977;48.782;9.190;2022-11-21T23:35:36;9.90;;;2.85;;
24631;SDS011;59977;48.782;9.190;2022-11-21T23:38:02;9.75;;;2.80;;
24631;SDS011;59977;48.782;9.190;2022-11-21T23:40:28;16.38;;;2.65;;
24631;SDS011;59977;48.782;9.190;2022-11-21T23:42:54;7.10;;;2.78;;
24631;SDS011;59977;48.782;9.190;2022-11-21T23:45:19;10.23;;;2.60;;
24631;SDS011;59977;48.782;9.190;2022-11-21T23:47:45;9.18;;;3.15;;
24631;SDS011;59977;48.782;9.190;2022-11-21T23:50:11;10.60;;;3.55;;
24631;SDS011;59977;48.782;9.190;2022-11-21T23:52:36;13.05;;;3.28;;
24631;SDS011;59977;48.782;9.190;2022-11-21T23:55:02;7.78;;;2.50;;
24631;SDS011;59977;48.782;9.190;2022-11-21T23:57:28;9.00;;;2.90;;
24631;SDS011;59977;48.782;9.190;2022-11-21T23:59:54;7.05;;;2.42;;
